Welcome to Northern Hawkes Bay. New Zealand.
PWS Header
      nz Flag



Hit Counter


W3C Valid W3C Valid logo


    Wairoa

Select any of the Stations below to visit their websites.










Historic Data from Weather Underground
Select the location of interest below. Wairoa is the default. Please have patience, this Data is slow to load in.
Northern Hawkes Bay Historical Data
Daily Summary for December 9, 2017 Units:  English    Metric   Both
« Previous Day
Next Day »
Daily Weekly Monthly Yearly Custom
  High: Low: Average:
Temperature: 84.2 °F 59.4 °F 73.2 °F
Dew Point: 61 °F 55.4 °F 57.9 °F
Humidity: 93% 38% 61%
Wind Speed: 13.6mph 0mph 3.5mph
Wind Gust: 20.6mph - -
Wind- - SSW
Pressure: 30.2 in 30 in -
Precipitation: 0 in    
Historical Graphs
 
 
Tabular Data for December 9, 2017
Time Temperature Dew Point Pressure Wind Wind Speed Wind Gust Humidity Rainfall Rate (Hourly) solar
00:11 66.4 °F 58.3 °F 30.1 in Calm   3.8 mph 75% 0 in 0 W/m2
00:16 66.2 °F 58.1 °F 30.1 in Calm   3.1 mph 75% 0 in 0 W/m2
00:21 66 °F 58.3 °F 30.1 in NW 0.7 mph 3.8 mph 76% 0 in 0 W/m2
00:31 65.7 °F 58.3 °F 30.1 in NW 0.7 mph 4.5 mph 77% 0 in 0 W/m2
00:36 65.5 °F 58.1 °F 30.1 in NNW 0.7 mph 3.1 mph 77% 0 in 0 W/m2
00:41 65.5 °F 58.5 °F 30.1 in NNW 0.7 mph 3.1 mph 78% 0 in 0 W/m2
00:46 65.5 °F 58.5 °F 30.1 in NNW 0.7 mph 4.5 mph 78% 0 in 0 W/m2
00:51 65.5 °F 58.5 °F 30.1 in Calm   4.5 mph 78% 0 in 0 W/m2
00:56 65.5 °F 58.5 °F 30.1 in Calm   4.5 mph 78% 0 in 0 W/m2
01:02 65.5 °F 58.5 °F 30.1 in NNW 0.7 mph 3.1 mph 78% 0 in 0 W/m2
01:12 65.3 °F 58.3 °F 30.1 in Calm   3.1 mph 78% 0 in 0 W/m2
01:22 65.3 °F 58.3 °F 30.1 in Calm   3.1 mph 78% 0 in 0 W/m2
01:37 65.3 °F 58.3 °F 30.1 in Calm   4.5 mph 78% 0 in 0 W/m2
01:43 65.7 °F 58.3 °F 30.1 in NNW 1.6 mph 6.9 mph 77% 0 in 0 W/m2
01:48 65.7 °F 58.3 °F 30.1 in Calm   3.1 mph 77% 0 in 0 W/m2
01:53 65.5 °F 58.1 °F 30.1 in Calm   3.1 mph 77% 0 in 0 W/m2
01:58 65.7 °F 58.3 °F 30.1 in Calm   5.4 mph 77% 0 in 0 W/m2
02:03 65.8 °F 58.5 °F 30.1 in Calm   5.4 mph 77% 0 in 0 W/m2
02:09 65.7 °F 58.3 °F 30.1 in North 1.6 mph 4.5 mph 77% 0 in 0 W/m2
02:19 65.1 °F 58.1 °F 30.1 in NNW 0.7 mph 4.5 mph 78% 0 in 0 W/m2
02:24 64.9 °F 58.3 °F 30.1 in NNW 0.7 mph 4.5 mph 79% 0 in 0 W/m2
02:29 64.8 °F 58.1 °F 30.1 in Calm   3.1 mph 79% 0 in 0 W/m2
02:34 64.2 °F 58.3 °F 30.1 in Calm   2.2 mph 81% 0 in 0 W/m2
02:55 64.2 °F 58.3 °F 30.1 in North 0.7 mph 3.1 mph 81% 0 in 0 W/m2
03:00 64.2 °F 58.3 °F 30.1 in Calm   3.1 mph 81% 0 in 0 W/m2
03:05 64 °F 58.1 °F 30.1 in NNW 0.7 mph 4.5 mph 81% 0 in 0 W/m2
03:10 64 °F 58.1 °F 30.1 in NW 0.7 mph 4.5 mph 81% 0 in 0 W/m2
03:15 63.9 °F 57.9 °F 30.1 in NNW 0.7 mph 4.5 mph 81% 0 in 0 W/m2
03:20 63.7 °F 58.1 °F 30.1 in Calm   3.8 mph 82% 0 in 0 W/m2
03:25 63.5 °F 57.9 °F 30.1 in North 1.6 mph 3.8 mph 82% 0 in 0 W/m2
03:30 63.5 °F 57.9 °F 30.1 in North 1.6 mph 4.5 mph 82% 0 in 0 W/m2
03:40 63.3 °F 57.7 °F 30.1 in North 0.7 mph 4.5 mph 82% 0 in 0 W/m2
03:46 63.3 °F 57.7 °F 30.1 in Calm   4.5 mph 82% 0 in 0 W/m2
03:51 63.1 °F 57.6 °F 30.1 in Calm   4.5 mph 82% 0 in 0 W/m2
03:56 62.8 °F 57.2 °F 30.1 in North 0.7 mph 3.1 mph 82% 0 in 0 W/m2
04:01 62.8 °F 57.6 °F 30.1 in Calm   3.1 mph 83% 0 in 0 W/m2
04:06 62.6 °F 57.4 °F 30.1 in North 0.7 mph 2.2 mph 83% 0 in 0 W/m2
04:11 62.2 °F 57.4 °F 30.1 in Calm   2.2 mph 84% 0 in 0 W/m2
04:16 62.2 °F 57.7 °F 30.1 in Calm   2.2 mph 85% 0 in 0 W/m2
04:21 62.1 °F 57.6 °F 30.1 in Calm   2.2 mph 85% 0 in 0 W/m2
04:26 61.9 °F 57.4 °F 30.1 in Calm   2.2 mph 85% 0 in 0 W/m2
04:36 61.5 °F 57.4 °F 30.1 in Calm   1.6 mph 86% 0 in 0 W/m2
04:41 61.2 °F 57 °F 30.1 in NW 0.7 mph 1.6 mph 86% 0 in 0 W/m2
04:51 60.8 °F 56.8 °F 30.1 in Calm   2.2 mph 87% 0 in 0 W/m2
04:56 60.4 °F 57.2 °F 30.1 in Calm   2.2 mph 89% 0 in 0 W/m2
05:01 60.4 °F 57.2 °F 30.1 in Calm   0.7 mph 89% 0 in 0 W/m2
05:06 60.1 °F 56.8 °F 30.1 in Calm   0.7 mph 89% 0 in 0 W/m2
05:11 59.9 °F 57 °F 30.1 in Calm   1.6 mph 90% 0 in 0 W/m2
05:16 59.9 °F 57 °F 30.1 in Calm   1.6 mph 90% 0 in 0 W/m2
05:21 59.7 °F 57 °F 30.1 in Calm   1.6 mph 91% 0 in 0 W/m2
05:26 59.5 °F 56.8 °F 30.1 in Calm   1.6 mph 91% 0 in 0 W/m2
05:41 59.4 °F 57.4 °F 30.1 in Calm   2.2 mph 93% 0 in 2 W/m2
05:46 59.4 °F 57.4 °F 30.1 in Calm   2.2 mph 93% 0 in 4 W/m2
05:51 59.4 °F 57.4 °F 30.1 in Calm   1.6 mph 93% 0 in 7 W/m2
06:01 59.4 °F 57.4 °F 30.1 in Calm   0.7 mph 93% 0 in 16 W/m2
06:06 59.5 °F 57.6 °F 30.1 in Calm   1.6 mph 93% 0 in 19 W/m2
06:11 59.5 °F 57.6 °F 30.1 in Calm   2.2 mph 93% 0 in 23 W/m2
06:16 59.9 °F 57.9 °F 30.1 in Calm   2.2 mph 93% 0 in 28 W/m2
06:21 60.3 °F 58.3 °F 30.1 in Calm   2.2 mph 93% 0 in 37 W/m2
06:26 60.8 °F 58.3 °F 30.1 in Calm   2.2 mph 91% 0 in 61 W/m2
06:31 61.7 °F 58.8 °F 30.1 in NNW 0.7 mph 2.2 mph 90% 0 in 70 W/m2
06:36 62.1 °F 58.5 °F 30.1 in NNW 1.6 mph 3.1 mph 88% 0 in 78 W/m2
06:41 63 °F 58.5 °F 30.1 in NW 1.6 mph 3.1 mph 85% 0 in 86 W/m2
06:46 63.5 °F 58.6 °F 30.1 in NW 0.7 mph 3.1 mph 84% 0 in 94 W/m2
06:51 64 °F 58.8 °F 30.1 in NNW 1.6 mph 3.8 mph 83% 0 in 103 W/m2
06:56 64.6 °F 59.4 °F 30.1 in NNW 0.7 mph 3.8 mph 83% 0 in 113 W/m2
07:01 65.3 °F 59.4 °F 30.1 in NW 3.1 mph 4.5 mph 81% 0 in 123 W/m2
07:06 65.8 °F 59.5 °F 30.1 in NW 1.6 mph 4.5 mph 80% 0 in 133 W/m2
07:11 66.4 °F 59 °F 30.1 in NNW 2.2 mph 4.5 mph 77% 0 in 144 W/m2
07:21 67.8 °F 59.5 °F 30.1 in NNW 2.2 mph 5.4 mph 75% 0 in 166 W/m2
07:26 68.4 °F 59.4 °F 30.1 in NNW 4.5 mph 6.9 mph 73% 0 in 177 W/m2
07:31 68.5 °F 59.2 °F 30.1 in NNW 3.8 mph 9.2 mph 72% 0 in 190 W/m2
07:36 69.1 °F 59.7 °F 30.1 in NNW 1.6 mph 9.2 mph 72% 0 in 201 W/m2
07:41 70 °F 59.4 °F 30.1 in North 5.4 mph 8.3 mph 69% 0 in 215 W/m2
07:51 70.5 °F 59.2 °F 30.1 in North 3.1 mph 9.8 mph 67% 0 in 238 W/m2
07:56 70.9 °F 59.4 °F 30.1 in NNE 2.2 mph 9.8 mph 67% 0 in 251 W/m2
08:06 71.4 °F 59.2 °F 30.1 in North 2.2 mph 9.2 mph 65% 0 in 277 W/m2
08:11 72.3 °F 59.5 °F 30.1 in North 0.7 mph 9.2 mph 64% 0 in 289 W/m2
08:16 73.2 °F 59.5 °F 30.2 in North 0.7 mph 9.2 mph 62% 0 in 306 W/m2
08:21 73.4 °F 59.5 °F 30.2 in North 3.8 mph 9.2 mph 62% 0 in 319 W/m2
08:26 74.3 °F 59.5 °F 30.2 in NNE 1.6 mph 7.6 mph 60% 0 in 336 W/m2
08:30 74.7 °F 59.9 °F 30.2 in NE 3.8 mph 7.6 mph 60% 0 in 342 W/m2
08:35 74.1 °F 58.5 °F 30.2 in NNE 3.1 mph 8.3 mph 58% 0 in 357 W/m2
08:40 74.3 °F 59.5 °F 30.2 in NNE 3.1 mph 8.3 mph 60% 0 in 372 W/m2
08:46 74.3 °F 58.6 °F 30.2 in NNW 3.8 mph 8.3 mph 58% 0 in 388 W/m2
08:51 74.5 °F 58.8 °F 30.2 in NNW 5.4 mph 8.3 mph 58% 0 in 402 W/m2
08:56 74.7 °F 59.4 °F 30.2 in NNE 2.2 mph 8.3 mph 59% 0 in 421 W/m2
09:01 75.7 °F 58.5 °F 30.1 in NE 3.1 mph 8.3 mph 55% 0 in 440 W/m2
09:11 76.6 °F 59.4 °F 30.1 in Calm   7.6 mph 55% 0 in 472 W/m2
09:16 77.2 °F 59.4 °F 30.1 in North 3.1 mph 6 mph 54% 0 in 488 W/m2
09:21 76.1 °F 58.8 °F 30.1 in NNW 3.1 mph 6.9 mph 55% 0 in 505 W/m2
09:26 76.6 °F 58.8 °F 30.1 in Calm   8.3 mph 54% 0 in 519 W/m2
09:31 77.4 °F 57.9 °F 30.1 in NNE 0.7 mph 8.3 mph 51% 0 in 543 W/m2
09:41 77 °F 57.6 °F 30.1 in North 2.2 mph 9.2 mph 51% 0 in 580 W/m2
09:46 77.4 °F 58.8 °F 30.1 in NNW 2.2 mph 6.9 mph 53% 0 in 597 W/m2
09:51 78.3 °F 59.7 °F 30.1 in North 5.4 mph 6.9 mph 53% 0 in 633 W/m2
09:56 78.3 °F 59.2 °F 30.1 in Calm   6.9 mph 52% 0 in 652 W/m2
10:01 79.7 °F 57.7 °F 30.1 in NNW 3.1 mph 7.6 mph 47% 0 in 679 W/m2
10:06 79.3 °F 55.6 °F 30.1 in NNW 5.4 mph 9.8 mph 44% 0 in 697 W/m2
10:16 78.4 °F 55.9 °F 30.1 in NNW 6.9 mph 13 mph 46% 0 in 732 W/m2
10:19 78.3 °F 55.8 °F 30.1 in NNW 3.1 mph 13 mph 46% 0 in 738 W/m2
10:24 78.4 °F 55.9 °F 30.1 in NNW 6 mph 12.1 mph 46% 0 in 763 W/m2
10:29 78.1 °F 56.1 °F 30.1 in NNW 7.6 mph 12.1 mph 47% 0 in 763 W/m2
10:34 79.2 °F 56.7 °F 30.1 in North 3.8 mph 12.1 mph 46% 0 in 810 W/m2
10:40 80.8 °F 57.6 °F 30.1 in NNE 6.9 mph 10.7 mph 45% 0 in 601 W/m2
10:48 80.2 °F 57 °F 30.1 in NNE 4.5 mph 9.8 mph 45% 0 in 403 W/m2
10:53 79.7 °F 56.5 °F 30.1 in NE 5.4 mph 9.2 mph 45% 0 in 920 W/m2
10:58 80.4 °F 57.2 °F 30.1 in NE 6 mph 9.8 mph 45% 0 in 896 W/m2
11:03 80.1 °F 56.8 °F 30.1 in NE 4.5 mph 9.8 mph 45% 0 in 832 W/m2
11:08 80.2 °F 56.5 °F 30.1 in NE 6 mph 8.3 mph 44% 0 in 505 W/m2
11:18 79.3 °F 55.6 °F 30.1 in ENE 5.4 mph 8.3 mph 44% 0 in 348 W/m2
11:23 78.6 °F 56.7 °F 30.1 in ENE 0.7 mph 9.8 mph 47% 0 in 349 W/m2
11:28 79.5 °F 56.5 °F 30.1 in NE 3.8 mph 9.8 mph 45% 0 in 377 W/m2
11:33 78.6 °F 56.1 °F 30.1 in NNE 4.5 mph 9.8 mph 46% 0 in 333 W/m2
11:38 79 °F 56.5 °F 30.1 in North 4.5 mph 9.8 mph 46% 0 in 333 W/m2
11:43 78.8 °F 56.8 °F 30.1 in North 4.5 mph 8.3 mph 47% 0 in 905 W/m2
11:48 79.3 °F 56.8 °F 30.1 in Calm   9.2 mph 46% 0 in 904 W/m2
11:53 80.8 °F 56.8 °F 30.1 in NE 1.6 mph 9.2 mph 44% 0 in 948 W/m2
11:58 81.1 °F 57.2 °F 30.1 in North 0.7 mph 7.6 mph 44% 0 in 998 W/m2
12:03 82 °F 57.4 °F 30.1 in NNE 0.7 mph 7.6 mph 43% 0 in 609 W/m2
12:08 80.8 °F 56.8 °F 30.1 in NNE 2.2 mph 9.2 mph 44% 0 in 418 W/m2
12:13 80.2 °F 57.6 °F 30.1 in NNE 3.8 mph 9.2 mph 46% 0 in 367 W/m2
12:28 82 °F 57.9 °F 30.1 in NE 3.1 mph 10.7 mph 44% 0 in 889 W/m2
12:33 82.4 °F 59.5 °F 30.1 in NNE 5.4 mph 10.7 mph 46% 0 in 930 W/m2
12:53 80.4 °F 60.1 °F 30.1 in Calm   10.7 mph 50% 0 in 1027 W/m2
13:08 80.6 °F 59.7 °F 30.1 in Calm   3.1 mph 49% 0 in 344 W/m2
13:13 80.6 °F 59.7 °F 30.1 in Calm   3.1 mph 49% 0 in 363 W/m2
13:28 81 °F 56.5 °F 30.1 in North 3.8 mph 13 mph 43% 0 in 389 W/m2
13:33 81.3 °F 56.1 °F 30.1 in NNW 7.6 mph 15.2 mph 42% 0 in 421 W/m2
13:38 81.5 °F 56.8 °F 30.1 in NNW 2.2 mph 15.2 mph 43% 0 in 487 W/m2
13:48 82 °F 56.7 °F 30.1 in North 7.6 mph 14.5 mph 42% 0 in 397 W/m2
14:03 81.5 °F 56.8 °F 30.1 in NNW 8.3 mph 14.5 mph 43% 0 in 430 W/m2
14:08 81.7 °F 57 °F 30.1 in NNW 7.6 mph 14.5 mph 43% 0 in 522 W/m2
14:18 82.8 °F 57.9 °F 30.1 in North 10.7 mph 19 mph 43% 0 in 271 W/m2
14:29 82.6 °F 60.4 °F 30.1 in North 0.7 mph 13.6 mph 47% 0 in 880 W/m2
14:34 83.3 °F 61 °F 30.1 in North 6.9 mph 11.4 mph 47% 0 in 814 W/m2
14:44 83.8 °F 58.3 °F 30.1 in North 10.7 mph 17.4 mph 42% 0 in 778 W/m2
14:54 83.3 °F 57.2 °F 30.1 in North 9.8 mph 17.4 mph 41% 0 in 749 W/m2
15:09 84 °F 58.5 °F 30.1 in NNW 6 mph 17.4 mph 42% 0 in 782 W/m2
15:19 83.3 °F 57.9 °F 30.1 in North 10.7 mph 16.8 mph 42% 0 in 699 W/m2
15:24 83.5 °F 57.9 °F 30.1 in North 8.3 mph 16.8 mph 42% 0 in 687 W/m2
15:29 83.3 °F 58.5 °F 30.1 in North 5.4 mph 15.9 mph 43% 0 in 670 W/m2
15:30 83.3 °F 58.5 °F 30.1 in North 8.3 mph 18.3 mph 43% 0 in 458 W/m2
15:35 83.1 °F 59 °F 30 in NNW 12.1 mph 18.3 mph 44% 0 in 670 W/m2
15:40 82.9 °F 58.3 °F 30.1 in NNW 12.1 mph 18.3 mph 43% 0 in 643 W/m2
15:46 82.8 °F 57.9 °F 30 in NNW 5.4 mph 16.8 mph 43% 0 in 634 W/m2
15:51 82.9 °F 58.8 °F 30.1 in NNW 13.6 mph 20.6 mph 44% 0 in 620 W/m2
15:52 82.9 °F 58.8 °F 30 in NNW 12.1 mph 20.6 mph 44% 0 in 619 W/m2
15:57 82.8 °F 58.6 °F 30.1 in NNW 9.8 mph 20.6 mph 44% 0 in 609 W/m2
16:02 83.3 °F 59.2 °F 30.1 in NNW 13 mph 18.3 mph 44% 0 in 606 W/m2
16:07 82.9 °F 57.6 °F 30 in NNW 6.9 mph 18.3 mph 42% 0 in 617 W/m2
16:17 84 °F 57 °F 30 in NW 9.8 mph 19 mph 40% 0 in 646 W/m2
16:22 83.7 °F 57.6 °F 30 in NW 8.3 mph 19 mph 41% 0 in 621 W/m2
16:25 83.7 °F 55.4 °F 30 in NW 8.3 mph 19.7 mph 38% 0 in 300 W/m2
16:31 83.7 °F 56.1 °F 30 in NNW 9.2 mph 19.7 mph 39% 0 in 538 W/m2
16:34 83.5 °F 56.7 °F 30 in NNW 6 mph 19.7 mph 40% 0 in 534 W/m2
16:39 83.7 °F 55.4 °F 30 in NNW 11.4 mph 18.3 mph 38% 0 in 538 W/m2
16:49 83.3 °F 56.5 °F 30 in North 6.9 mph 18.3 mph 40% 0 in 559 W/m2
16:54 83.3 °F 57.9 °F 30 in NNW 9.2 mph 15.2 mph 42% 0 in 547 W/m2
16:59 83.7 °F 60.1 °F 30 in North 6.9 mph 13.6 mph 45% 0 in 324 W/m2
17:04 82.9 °F 59.5 °F 30 in North 7.6 mph 14.5 mph 45% 0 in 396 W/m2
17:09 82.9 °F 59.5 °F 30 in North 9.8 mph 16.8 mph 45% 0 in 439 W/m2
17:23 80.6 °F 57.4 °F 30 in North 8.3 mph 14.5 mph 45% 0 in 120 W/m2
17:28 80.2 °F 57.6 °F 30 in North 3.8 mph 13.6 mph 46% 0 in 210 W/m2
17:38 81.9 °F 57.2 °F 30 in North 6 mph 14.5 mph 43% 0 in 392 W/m2
17:43 83.1 °F 59 °F 30 in North 9.2 mph 13 mph 44% 0 in 366 W/m2
17:48 83.1 °F 59.5 °F 30 in North 3.1 mph 13 mph 45% 0 in 357 W/m2
17:53 83.5 °F 58.6 °F 30 in North 4.5 mph 12.1 mph 43% 0 in 341 W/m2
17:58 84 °F 59.7 °F 30 in NNE 3.1 mph 11.4 mph 44% 0 in 318 W/m2
18:03 84.2 °F 58.6 °F 30 in North 3.8 mph 9.8 mph 42% 0 in 300 W/m2
18:08 83.7 °F 58.8 °F 30 in North 7.6 mph 12.1 mph 43% 0 in 283 W/m2
18:18 82 °F 56.7 °F 30 in NNW 9.2 mph 14.5 mph 42% 0 in 256 W/m2
18:23 82.2 °F 56.8 °F 30 in NNW 4.5 mph 13.6 mph 42% 0 in 248 W/m2
18:28 82.8 °F 59.4 °F 30 in North 5.4 mph 13 mph 45% 0 in 237 W/m2
18:33 81.9 °F 56.7 °F 30 in NNE 5.4 mph 13.6 mph 42% 0 in 224 W/m2
18:38 82 °F 57.4 °F 30 in North 4.5 mph 13.6 mph 43% 0 in 213 W/m2
18:43 81.9 °F 57.2 °F 30 in NNE 6 mph 12.1 mph 43% 0 in 201 W/m2
18:55 81 °F 57 °F 30 in NNE 4.5 mph 15.9 mph 44% 0 in 176 W/m2
19:00 80.8 °F 56.8 °F 30 in North 5.4 mph 14.5 mph 44% 0 in 176 W/m2
19:05 80.4 °F 57.2 °F 30 in North 6.9 mph 12.1 mph 45% 0 in 165 W/m2
19:15 79.9 °F 57.4 °F 30 in NNW 6.9 mph 12.1 mph 46% 0 in 140 W/m2
19:20 79.3 °F 57.4 °F 30 in North 3.1 mph 13 mph 47% 0 in 123 W/m2
19:31 77.9 °F 57.2 °F 30 in North 7.6 mph 16.8 mph 49% 0 in 91 W/m2
19:36 77.7 °F 57.6 °F 30 in North 3.1 mph 13.6 mph 50% 0 in 70 W/m2
19:42 77.4 °F 57.9 °F 30 in NNW 4.5 mph 13.6 mph 51% 0 in 60 W/m2
19:47 76.5 °F 58.1 °F 30 in NNW 6 mph 15.9 mph 53% 0 in 50 W/m2
19:52 76.5 °F 58.1 °F 30 in NNW 3.1 mph 15.9 mph 53% 0 in 53 W/m2
19:57 76.5 °F 58.6 °F 30 in NNW 2.2 mph 12.1 mph 54% 0 in 25 W/m2
20:02 75.9 °F 58.1 °F 30 in NNW 5.4 mph 11.4 mph 54% 0 in 32 W/m2
20:07 75.6 °F 57.7 °F 30 in NNW 3.1 mph 13 mph 54% 0 in 19 W/m2
20:23 73.9 °F 57.7 °F 30 in NNE 3.8 mph 15.9 mph 57% 0 in 4 W/m2
20:28 73.6 °F 57.9 °F 30 in North 3.1 mph 15.9 mph 58% 0 in 1 W/m2
20:33 73.4 °F 57.7 °F 30.1 in NNW 3.8 mph 10.7 mph 58% 0 in 0 W/m2
20:38 73 °F 57.9 °F 30.1 in NNW 3.8 mph 10.7 mph 59% 0 in 0 W/m2
20:48 72.3 °F 58.1 °F 30.1 in NNE 3.8 mph 10.7 mph 61% 0 in 0 W/m2
20:53 72.1 °F 57.9 °F 30.1 in North 4.5 mph 11.4 mph 61% 0 in 0 W/m2
20:58 71.8 °F 57.6 °F 30.1 in North 2.2 mph 11.4 mph 61% 0 in 0 W/m2
21:03 71.6 °F 57.6 °F 30.1 in North 3.8 mph 9.2 mph 61% 0 in 0 W/m2
21:08 71.4 °F 58.3 °F 30.1 in North 0.7 mph 8.3 mph 63% 0 in 0 W/m2
21:13 71.4 °F 58.3 °F 30.1 in North 3.1 mph 10.7 mph 63% 0 in 0 W/m2
21:18 71.2 °F 57.9 °F 30.1 in NNE 1.6 mph 10.7 mph 63% 0 in 0 W/m2
21:23 71.2 °F 57.9 °F 30.1 in North 3.1 mph 10.7 mph 63% 0 in 0 W/m2
21:28 71.1 °F 57.9 °F 30.1 in Calm   9.2 mph 63% 0 in 0 W/m2
21:38 70.9 °F 57.7 °F 30.1 in North 4.5 mph 10.7 mph 63% 0 in 0 W/m2
21:43 70.9 °F 58.1 °F 30.1 in North 5.4 mph 9.8 mph 64% 0 in 0 W/m2
21:49 70.7 °F 57.9 °F 30.1 in North 6 mph 14.5 mph 64% 0 in 0 W/m2
21:54 70.7 °F 57.9 °F 30.1 in North 6 mph 14.5 mph 64% 0 in 0 W/m2
21:59 70.5 °F 57.7 °F 30.1 in North 6.9 mph 13 mph 64% 0 in 0 W/m2
22:04 70.3 °F 57.9 °F 30.1 in North 3.8 mph 13 mph 65% 0 in 0 W/m2
22:09 70.3 °F 57.9 °F 30.1 in NNW 3.1 mph 13 mph 65% 0 in 0 W/m2
22:19 70.3 °F 57.9 °F 30.1 in North 3.8 mph 20.6 mph 65% 0 in 0 W/m2
22:24 70.3 °F 57.9 °F 30.1 in North 2.2 mph 20.6 mph 65% 0 in 0 W/m2
22:39 70 °F 57.7 °F 30.1 in North 6 mph 15.9 mph 65% 0 in 0 W/m2
22:44 70 °F 57.7 °F 30.1 in North 7.6 mph 15.9 mph 65% 0 in 0 W/m2
22:49 69.8 °F 57.6 °F 30.1 in North 8.3 mph 16.8 mph 65% 0 in 0 W/m2
22:54 69.8 °F 57.6 °F 30.1 in North 7.6 mph 16.8 mph 65% 0 in 0 W/m2
23:04 69.3 °F 57.4 °F 30.1 in North 5.4 mph 14.5 mph 66% 0 in 0 W/m2
23:09 69.3 °F 57.4 °F 30.1 in NNE 3.1 mph 13 mph 66% 0 in 0 W/m2
23:14 69.3 °F 57 °F 30.1 in NNE 5.4 mph 16.8 mph 65% 0 in 0 W/m2
23:19 69.3 °F 57 °F 30.1 in NNW 4.5 mph 16.8 mph 65% 0 in 0 W/m2
23:24 69.3 °F 57 °F 30.1 in NNW 2.2 mph 16.8 mph 65% 0 in 0 W/m2
23:29 69.3 °F 57 °F 30.1 in North 4.5 mph 14.5 mph 65% 0 in 0 W/m2
23:34 69.3 °F 57 °F 30.1 in North 3.1 mph 14.5 mph 65% 0 in 0 W/m2
23:49 68.9 °F 57 °F 30.1 in NNW 6 mph 13 mph 66% 0 in 0 W/m2
23:59 68.7 °F 56.5 °F 30.1 in NNW 5.4 mph 14.5 mph 65% 0 in 0 W/m2
Northern Hawkes Bay. New Zealand Historic Data
Compliments of Weather Underground - 2 mb